createdAt,value
2022-08-05T00:02:15.525Z,6.30
2022-08-05T00:04:37.680Z,6.50
2022-08-05T00:07:01.715Z,6.17
2022-08-05T00:09:44.820Z,5.93
2022-08-05T00:12:07.602Z,6.50
2022-08-05T00:14:34.837Z,7.93
2022-08-05T00:16:56.571Z,6.40
2022-08-05T00:19:17.834Z,6.60
2022-08-05T00:21:43.899Z,6.53
2022-08-05T00:24:10.903Z,6.23
2022-08-05T00:26:34.255Z,6.37
2022-08-05T00:28:55.496Z,6.50
2022-08-05T00:31:53.635Z,6.17
2022-08-05T00:34:55.425Z,6.73
2022-08-05T00:37:10.575Z,6.43
2022-08-05T00:39:21.744Z,5.83
2022-08-05T00:41:55.321Z,6.00
2022-08-05T00:44:17.632Z,6.00
2022-08-05T00:46:42.810Z,5.80
2022-08-05T00:49:05.147Z,5.70
2022-08-05T00:51:50.251Z,6.23
2022-08-05T00:54:10.424Z,6.20
2022-08-05T00:56:32.973Z,6.47
2022-08-05T00:58:55.914Z,6.20
2022-08-05T01:01:42.983Z,6.00
2022-08-05T01:04:01.246Z,6.57
2022-08-05T01:06:28.910Z,6.33
2022-08-05T01:08:54.594Z,5.80
2022-08-05T01:11:21.767Z,6.57
2022-08-05T01:13:57.567Z,8.07
2022-08-05T01:16:26.344Z,6.73
2022-08-05T01:18:56.357Z,6.97
2022-08-05T01:21:37.856Z,6.77
2022-08-05T01:24:13.423Z,6.40
2022-08-05T01:26:44.483Z,6.43
2022-08-05T01:29:15.281Z,6.07
2022-08-05T01:31:44.842Z,6.80
2022-08-05T01:34:11.290Z,6.50
2022-08-05T01:36:36.895Z,6.67
2022-08-05T01:39:04.196Z,6.47
2022-08-05T01:41:26.470Z,6.73
2022-08-05T01:43:48.889Z,6.50
2022-08-05T01:46:16.410Z,6.80
2022-08-05T01:48:55.961Z,6.77
2022-08-05T01:51:19.424Z,6.73
2022-08-05T01:53:57.162Z,6.97
2022-08-05T01:58:10.130Z,6.67
2022-08-05T01:59:03.938Z,5.87
2022-08-05T02:01:27.637Z,5.90
2022-08-05T02:03:50.239Z,5.80
2022-08-05T02:06:39.189Z,6.60
2022-08-05T02:09:31.303Z,6.23
2022-08-05T02:12:00.671Z,7.43
2022-08-05T02:14:27.823Z,6.50
2022-08-05T02:17:00.300Z,6.30
2022-08-05T02:19:27.310Z,6.50
2022-08-05T02:21:55.267Z,7.00
2022-08-05T02:24:23.359Z,6.27
2022-08-05T02:26:51.895Z,7.10
2022-08-05T02:29:24.119Z,6.53
2022-08-05T02:31:48.611Z,6.50
2022-08-05T02:34:13.104Z,6.43
2022-08-05T02:36:35.892Z,6.10
2022-08-05T02:38:58.266Z,6.20
2022-08-05T02:41:21.185Z,5.83
2022-08-05T02:44:02.275Z,7.97
2022-08-05T02:46:28.977Z,6.83
2022-08-05T02:48:52.729Z,9.50
2022-08-05T02:51:17.365Z,5.93
2022-08-05T02:53:50.209Z,6.03
2022-08-05T02:56:18.972Z,5.90
2022-08-05T02:58:43.684Z,6.50
2022-08-05T03:01:06.172Z,5.27
2022-08-05T03:03:33.884Z,6.23
2022-08-05T03:06:55.671Z,5.27
2022-08-05T03:08:55.174Z,5.30
2022-08-05T03:11:57.266Z,5.83
2022-08-05T03:14:03.333Z,5.27
2022-08-05T03:16:25.621Z,6.37
2022-08-05T03:18:49.720Z,5.40
2022-08-05T03:21:11.532Z,5.10
2022-08-05T03:23:33.803Z,5.33
2022-08-05T03:26:04.281Z,5.90
2022-08-05T03:28:39.500Z,6.93
2022-08-05T03:31:04.179Z,5.77
2022-08-05T03:33:42.251Z,5.00
2022-08-05T03:36:11.981Z,5.30
2022-08-05T03:38:37.486Z,5.77
2022-08-05T03:41:00.565Z,6.60
2022-08-05T03:44:09.795Z,7.90
2022-08-05T03:46:11.720Z,8.57
2022-08-05T03:48:35.659Z,7.37
2022-08-05T03:52:35.147Z,5.73
2022-08-05T03:55:54.022Z,10.83
2022-08-05T03:56:38.845Z,7.00
2022-08-05T03:59:04.907Z,7.27
2022-08-05T04:01:28.228Z,11.70
2022-08-05T04:04:09.391Z,5.27
2022-08-05T04:06:32.649Z,6.00
2022-08-05T04:08:54.591Z,6.63
2022-08-05T04:11:16.302Z,8.80
2022-08-05T04:13:49.782Z,5.73
2022-08-05T04:16:14.493Z,5.67
2022-08-05T04:18:36.182Z,4.97
2022-08-05T04:20:58.421Z,5.43
2022-08-05T04:23:20.282Z,6.80
2022-08-05T04:26:01.695Z,6.60
2022-08-05T04:28:30.883Z,5.10
2022-08-05T04:30:54.777Z,5.63
2022-08-05T04:33:17.293Z,6.07
2022-08-05T04:36:16.715Z,5.97
2022-08-05T04:38:40.270Z,5.80
2022-08-05T04:41:03.475Z,5.27
2022-08-05T04:43:26.417Z,5.03
2022-08-05T04:45:55.585Z,6.80
2022-08-05T04:48:28.042Z,5.17
2022-08-05T04:51:03.195Z,5.27
2022-08-05T04:53:33.390Z,6.57
2022-08-05T04:56:15.290Z,9.17
2022-08-05T04:58:38.396Z,5.03
2022-08-05T05:00:59.842Z,6.10
2022-08-05T05:03:22.862Z,5.30
2022-08-05T05:06:39.151Z,5.70
2022-08-05T05:08:26.605Z,12.10
2022-08-05T05:10:56.391Z,6.90
2022-08-05T05:13:19.261Z,7.60
2022-08-05T05:15:59.182Z,8.60
2022-08-05T05:18:28.763Z,9.33
2022-08-05T05:20:55.075Z,7.30
2022-08-05T05:23:19.826Z,8.17
2022-08-05T05:25:41.968Z,6.50
2022-08-05T05:28:03.386Z,7.57
2022-08-05T05:30:30.865Z,6.70
2022-08-05T05:32:53.116Z,6.13
2022-08-05T05:35:20.060Z,7.97
2022-08-05T05:38:00.140Z,6.93
2022-08-05T05:40:25.825Z,7.43
2022-08-05T05:42:47.747Z,8.33
2022-08-05T05:45:11.612Z,7.40
2022-08-05T05:48:06.279Z,8.10
2022-08-05T05:50:20.300Z,6.10
2022-08-05T05:52:42.304Z,8.60
2022-08-05T05:55:13.441Z,8.60
2022-08-05T05:57:51.882Z,6.63
2022-08-05T06:00:16.406Z,7.87
2022-08-05T06:02:38.029Z,8.97
2022-08-05T06:04:59.557Z,6.50
2022-08-05T06:07:41.320Z,10.73
2022-08-05T06:10:09.750Z,7.80
2022-08-05T06:12:32.059Z,8.80
2022-08-05T06:14:55.334Z,6.77
2022-08-05T06:17:24.219Z,8.30
2022-08-05T06:20:01.269Z,9.67
2022-08-05T06:22:27.064Z,8.73
2022-08-05T06:24:48.861Z,7.13
2022-08-05T06:27:17.170Z,6.53
2022-08-05T06:30:04.385Z,7.07
2022-08-05T06:32:29.441Z,8.10
2022-08-05T06:34:53.489Z,6.27
2022-08-05T06:37:18.220Z,6.33
2022-08-05T06:40:01.039Z,10.57
2022-08-05T06:42:24.057Z,8.47
2022-08-05T06:44:46.891Z,11.83
2022-08-05T06:47:30.128Z,11.43
2022-08-05T06:50:00.093Z,9.30
2022-08-05T06:52:38.150Z,6.43
2022-08-05T06:55:02.496Z,6.83
2022-08-05T06:58:03.208Z,8.40
2022-08-05T07:00:06.483Z,6.47
2022-08-05T07:02:31.755Z,7.47
2022-08-05T07:04:53.246Z,4.87
2022-08-05T07:07:15.367Z,7.30
2022-08-05T07:09:45.881Z,4.70
2022-08-05T07:12:32.418Z,4.47
2022-08-05T07:15:11.122Z,5.30
2022-08-05T07:17:59.333Z,5.60
2022-08-05T07:20:34.283Z,4.10
2022-08-05T07:22:58.881Z,4.80
2022-08-05T07:25:54.273Z,4.63
2022-08-05T07:28:08.192Z,4.57
2022-08-05T07:30:34.324Z,6.07
2022-08-05T07:32:57.472Z,4.63
2022-08-05T07:36:01.623Z,7.80
2022-08-05T07:38:00.811Z,6.70
2022-08-05T07:40:31.541Z,4.20
2022-08-05T07:42:54.766Z,4.97
2022-08-05T07:45:17.565Z,4.20
2022-08-05T07:47:59.386Z,4.30
2022-08-05T07:50:28.782Z,4.17
2022-08-05T07:52:53.580Z,6.73
2022-08-05T07:55:16.021Z,5.17
2022-08-05T07:58:02.838Z,3.70
2022-08-05T08:00:26.362Z,4.73
2022-08-05T08:03:15.046Z,4.70
2022-08-05T08:05:29.954Z,3.67
2022-08-05T08:07:59.816Z,4.60
2022-08-05T08:10:22.547Z,3.70
2022-08-05T08:12:49.740Z,3.87
2022-08-05T08:15:15.132Z,3.57
2022-08-05T08:17:38.729Z,3.50
2022-08-05T08:20:43.728Z,5.63
2022-08-05T08:22:53.512Z,3.80
2022-08-05T08:25:18.268Z,3.70
2022-08-05T08:27:51.288Z,3.93
2022-08-05T08:30:29.918Z,3.97
2022-08-05T08:32:57.048Z,3.77
2022-08-05T08:35:18.612Z,4.03
2022-08-05T08:37:45.053Z,3.60
2022-08-05T08:40:08.107Z,3.77
2022-08-05T08:42:34.198Z,3.60
2022-08-05T08:45:25.092Z,5.67
2022-08-05T08:48:11.718Z,3.83
2022-08-05T08:51:07.510Z,3.50
2022-08-05T08:53:17.536Z,4.33
2022-08-05T08:56:04.145Z,3.70
2022-08-05T08:58:37.055Z,5.13
2022-08-05T09:01:05.238Z,3.60
2022-08-05T09:03:40.461Z,3.50
2022-08-05T09:06:12.091Z,3.80
2022-08-05T09:08:40.387Z,3.23
2022-08-05T09:11:02.169Z,3.53
2022-08-05T09:13:25.107Z,3.70
2022-08-05T09:15:53.800Z,4.47
2022-08-05T09:18:16.490Z,3.83
2022-08-05T09:20:38.898Z,4.10
2022-08-05T09:23:19.419Z,3.20
2022-08-05T09:26:00.081Z,4.10
2022-08-05T09:28:32.282Z,3.30
2022-08-05T09:30:56.281Z,4.37
2022-08-05T09:33:17.808Z,3.20
2022-08-05T09:35:54.720Z,3.43
2022-08-05T09:38:27.580Z,2.80
2022-08-05T09:40:53.603Z,2.90
2022-08-05T09:43:28.205Z,2.87
2022-08-05T09:46:06.124Z,2.97
2022-08-05T09:48:31.462Z,2.23
2022-08-05T09:50:55.890Z,2.63
2022-08-05T09:54:29.135Z,2.50
2022-08-05T09:56:52.560Z,2.60
2022-08-05T09:59:17.234Z,2.80
2022-08-05T10:01:45.796Z,3.07
2022-08-05T10:04:11.042Z,3.73
2022-08-05T10:06:34.296Z,3.57
2022-08-05T10:08:57.958Z,2.80
2022-08-05T10:11:35.267Z,2.80
2022-08-05T10:14:55.521Z,2.80
2022-08-05T10:17:37.693Z,2.50
2022-08-05T10:20:04.000Z,2.60
2022-08-05T10:22:34.891Z,4.83
2022-08-05T10:25:02.782Z,2.47
2022-08-05T10:27:26.210Z,2.60
2022-08-05T10:32:47.111Z,2.50
2022-08-05T10:33:01.006Z,2.40
2022-08-05T10:35:33.707Z,2.50
2022-08-05T10:38:02.343Z,4.53
2022-08-05T10:40:31.914Z,3.07
2022-08-05T10:42:54.113Z,2.80
2022-08-05T10:45:23.698Z,2.97
2022-08-05T10:48:30.639Z,3.23
2022-08-05T10:50:59.290Z,3.43
2022-08-05T10:53:35.364Z,2.70
2022-08-05T10:56:21.381Z,3.17
2022-08-05T10:59:07.020Z,2.60
2022-08-05T11:01:54.998Z,2.60
2022-08-05T11:04:18.957Z,2.63
2022-08-05T11:07:06.618Z,2.80
2022-08-05T11:09:39.385Z,2.50
2022-08-05T11:13:58.027Z,2.63
2022-08-05T11:16:47.885Z,2.47
2022-08-05T11:20:39.235Z,2.80
2022-08-05T11:24:30.772Z,2.70
2022-08-05T11:28:24.967Z,2.50
2022-08-05T11:32:26.569Z,4.37
2022-08-05T11:36:08.061Z,2.87
2022-08-05T11:39:55.488Z,2.67
2022-08-05T11:44:00.940Z,5.00
2022-08-05T11:47:11.084Z,2.60
2022-08-05T11:50:38.414Z,2.63
2022-08-05T11:53:19.588Z,3.63
2022-08-05T11:56:52.929Z,2.70
2022-08-05T12:00:27.537Z,6.27
2022-08-05T12:02:56.622Z,2.93
2022-08-05T12:06:25.897Z,3.40
2022-08-05T12:09:53.576Z,2.70
2022-08-05T12:13:17.454Z,3.43
2022-08-05T12:15:52.740Z,2.70
2022-08-05T12:20:25.995Z,3.07
2022-08-05T12:23:08.922Z,3.07
2022-08-05T12:26:32.049Z,2.90
2022-08-05T12:30:03.308Z,5.10
2022-08-05T12:33:27.603Z,2.77
2022-08-05T12:36:56.884Z,2.87
2022-08-05T12:40:26.467Z,6.33
2022-08-05T12:43:50.471Z,2.50
2022-08-05T12:47:07.373Z,2.77
2022-08-05T12:50:37.759Z,3.33
2022-08-05T12:54:02.007Z,2.50
2022-08-05T12:57:02.493Z,2.60
2022-08-05T13:01:58.473Z,2.40
2022-08-05T13:02:43.561Z,2.83
2022-08-05T13:06:16.993Z,2.28
2022-08-05T13:09:39.206Z,2.30
2022-08-05T13:13:03.349Z,4.07
2022-08-05T13:16:28.845Z,2.50
2022-08-05T13:19:03.660Z,3.30
2022-08-05T13:22:28.287Z,2.97
2022-08-05T13:24:58.028Z,2.60
2022-08-05T13:27:38.611Z,2.50
2022-08-05T13:30:59.464Z,2.30
2022-08-05T13:34:26.050Z,2.95
2022-08-05T13:37:46.605Z,2.55
2022-08-05T13:40:51.321Z,2.80
2022-08-05T13:44:14.071Z,2.85
2022-08-05T13:48:08.485Z,2.22
2022-08-05T13:50:40.778Z,2.83
2022-08-05T13:54:00.974Z,4.15
2022-08-05T13:57:22.889Z,2.55
2022-08-05T14:00:45.753Z,3.78
2022-08-05T14:04:26.490Z,2.47
2022-08-05T14:08:00.725Z,2.78
2022-08-05T14:11:25.600Z,2.80
2022-08-05T14:14:33.565Z,3.13
2022-08-05T14:17:59.789Z,5.80
2022-08-05T14:22:10.155Z,2.75
2022-08-05T14:25:01.783Z,3.00
2022-08-05T14:28:27.400Z,3.93
2022-08-05T14:32:03.227Z,2.80
2022-08-05T14:35:50.080Z,6.10
2022-08-05T14:39:11.003Z,3.00
2022-08-05T14:42:31.430Z,2.97
2022-08-05T14:45:52.424Z,2.93
2022-08-05T14:49:13.569Z,2.73
2022-08-05T14:52:52.328Z,2.93
2022-08-05T14:56:13.480Z,3.00
2022-08-05T14:59:35.397Z,3.37
2022-08-05T15:02:56.547Z,3.00
2022-08-05T15:06:17.153Z,3.20
2022-08-05T15:09:13.930Z,5.00
2022-08-05T15:12:57.721Z,2.80
2022-08-05T15:16:16.046Z,3.20
2022-08-05T15:19:36.836Z,3.13
2022-08-05T15:22:16.005Z,3.53
2022-08-05T15:25:23.634Z,2.93
2022-08-05T15:29:02.621Z,5.00
2022-08-05T15:32:03.253Z,4.97
2022-08-05T15:35:23.362Z,6.13
2022-08-05T15:38:47.068Z,7.27
2022-08-05T15:42:50.463Z,4.63
2022-08-05T15:45:59.763Z,7.93
2022-08-05T15:49:40.814Z,3.63
2022-08-05T15:52:52.934Z,3.97
2022-08-05T15:56:16.377Z,4.03
2022-08-05T15:59:38.148Z,5.17
2022-08-05T16:02:59.104Z,6.37
2022-08-05T16:06:20.998Z,4.30
2022-08-05T16:09:43.621Z,5.87
2022-08-05T16:12:33.579Z,3.73
2022-08-05T16:15:52.948Z,5.33
2022-08-05T16:19:25.906Z,8.40
2022-08-05T16:22:52.981Z,5.83
2022-08-05T16:26:13.142Z,5.00
2022-08-05T16:29:37.538Z,3.83
2022-08-05T16:32:58.617Z,3.50
2022-08-05T16:36:20.195Z,3.47
2022-08-05T16:40:05.647Z,4.10
2022-08-05T16:43:23.483Z,3.63
2022-08-05T16:46:55.351Z,5.00
2022-08-05T16:50:17.863Z,3.83
2022-08-05T16:54:04.304Z,3.80
2022-08-05T16:57:53.287Z,5.10
2022-08-05T17:01:09.297Z,4.50
2022-08-05T17:04:29.668Z,3.40
2022-08-05T17:07:11.122Z,8.30
2022-08-05T17:10:32.085Z,3.77
2022-08-05T17:14:00.406Z,3.80
2022-08-05T17:17:42.277Z,6.13
2022-08-05T17:21:04.502Z,3.77
2022-08-05T17:24:34.938Z,3.60
2022-08-05T17:27:58.892Z,5.17
2022-08-05T17:31:24.742Z,4.00
2022-08-05T17:35:00.828Z,3.90
2022-08-05T17:37:40.217Z,3.60
2022-08-05T17:41:05.418Z,4.93
2022-08-05T17:44:32.329Z,5.60
2022-08-05T17:47:55.471Z,4.80
2022-08-05T17:51:21.557Z,4.27
2022-08-05T17:54:42.494Z,3.60
2022-08-05T17:58:02.405Z,5.73
2022-08-05T18:00:36.652Z,3.73
2022-08-05T18:04:04.548Z,3.97
2022-08-05T18:07:33.003Z,4.30
2022-08-05T18:11:03.254Z,4.30
2022-08-05T18:14:21.449Z,4.43
2022-08-05T18:18:00.709Z,4.10
2022-08-05T18:21:19.966Z,4.07
2022-08-05T18:24:13.042Z,4.00
2022-08-05T18:26:52.393Z,4.20
2022-08-05T18:30:12.612Z,12.73
2022-08-05T18:33:00.133Z,9.57
2022-08-05T18:35:49.583Z,4.40
2022-08-05T18:39:42.121Z,3.93
2022-08-05T18:42:50.491Z,4.20
2022-08-05T18:46:12.473Z,4.17
2022-08-05T18:49:58.324Z,4.20
2022-08-05T18:53:23.131Z,5.00
2022-08-05T18:56:51.081Z,5.23
2022-08-05T18:59:50.628Z,5.47
2022-08-05T19:02:43.285Z,5.93
2022-08-05T19:06:12.179Z,6.63
2022-08-05T19:09:40.065Z,6.53
2022-08-05T19:13:02.454Z,5.40
2022-08-05T19:16:28.455Z,6.47
2022-08-05T19:19:47.090Z,6.27
2022-08-05T19:22:32.172Z,6.57
2022-08-05T19:25:52.597Z,6.40
2022-08-05T19:28:54.135Z,6.33
2022-08-05T19:31:22.831Z,7.57
2022-08-05T19:34:34.632Z,7.83
2022-08-05T19:36:56.747Z,7.40
2022-08-05T19:39:18.283Z,8.57
2022-08-05T19:42:07.907Z,8.93
2022-08-05T19:44:33.699Z,7.70
2022-08-05T19:46:57.818Z,8.20
2022-08-05T19:49:19.509Z,7.97
2022-08-05T19:52:04.278Z,8.17
2022-08-05T19:54:31.186Z,8.67
2022-08-05T19:56:53.261Z,8.43
2022-08-05T19:59:51.590Z,9.33
2022-08-05T20:01:57.881Z,9.83
2022-08-05T20:04:58.968Z,8.93
2022-08-05T20:07:47.416Z,9.90
2022-08-05T20:10:04.948Z,9.30
2022-08-05T20:12:36.551Z,9.70
2022-08-05T20:14:57.931Z,9.13
2022-08-05T20:17:22.395Z,9.33
2022-08-05T20:19:44.977Z,8.97
2022-08-05T20:22:09.556Z,9.13
2022-08-05T20:24:32.854Z,9.30
2022-08-05T20:26:56.908Z,9.17
2022-08-05T20:30:19.613Z,9.70
2022-08-05T20:33:42.307Z,9.97
2022-08-05T20:36:55.114Z,9.57
2022-08-05T20:39:37.006Z,9.60
2022-08-05T20:42:00.378Z,10.10
2022-08-05T20:44:29.418Z,9.33
2022-08-05T20:46:52.237Z,10.30
2022-08-05T20:49:15.148Z,10.60
2022-08-05T20:51:46.168Z,9.50
2022-08-05T20:54:20.887Z,10.03
2022-08-05T20:56:42.691Z,10.40
2022-08-05T20:59:14.264Z,10.40
2022-08-05T21:01:41.057Z,11.10
2022-08-05T21:04:02.702Z,10.40
2022-08-05T21:06:29.596Z,11.17
2022-08-05T21:08:51.018Z,11.23
2022-08-05T21:11:51.637Z,10.70
2022-08-05T21:13:56.625Z,10.47
2022-08-05T21:16:18.575Z,11.13
2022-08-05T21:18:42.902Z,11.10
2022-08-05T21:21:07.483Z,10.20
2022-08-05T21:23:37.497Z,9.13
2022-08-05T21:26:00.564Z,8.23
2022-08-05T21:28:30.885Z,8.77
2022-08-05T21:30:52.739Z,9.30
2022-08-05T21:33:22.571Z,9.90
2022-08-05T21:35:58.542Z,10.13
2022-08-05T21:38:20.612Z,10.87
2022-08-05T21:40:43.458Z,10.70
2022-08-05T21:43:08.299Z,11.07
2022-08-05T21:45:56.694Z,11.03
2022-08-05T21:48:19.641Z,11.80
2022-08-05T21:50:41.655Z,12.20
2022-08-05T21:53:16.572Z,11.23
2022-08-05T21:55:43.047Z,10.77
2022-08-05T21:58:31.463Z,11.00
2022-08-05T22:00:53.923Z,11.60
2022-08-05T22:03:15.710Z,11.27
2022-08-05T22:05:48.945Z,13.03
2022-08-05T22:08:22.506Z,11.50
2022-08-05T22:10:45.659Z,11.17
2022-08-05T22:14:05.272Z,11.90
2022-08-05T22:16:00.382Z,10.80
2022-08-05T22:18:29.325Z,10.73
2022-08-05T22:20:52.424Z,11.43
2022-08-05T22:24:02.034Z,10.43
2022-08-05T22:26:33.148Z,9.97
2022-08-05T22:28:55.276Z,9.47
2022-08-05T22:31:17.878Z,10.37
2022-08-05T22:33:57.282Z,8.77
2022-08-05T22:36:23.772Z,9.17
2022-08-05T22:38:48.297Z,7.77
2022-08-05T22:41:10.897Z,8.33
2022-08-05T22:43:36.510Z,7.47
2022-08-05T22:45:59.055Z,7.60
2022-08-05T22:48:23.138Z,6.93
2022-08-05T22:50:56.251Z,6.70
2022-08-05T22:53:18.080Z,6.77
2022-08-05T22:55:57.046Z,6.80
2022-08-05T22:58:28.271Z,6.90
2022-08-05T23:00:50.934Z,6.80
2022-08-05T23:03:13.367Z,6.40
2022-08-05T23:05:36.676Z,7.87
2022-08-05T23:08:00.761Z,5.97
2022-08-05T23:10:23.899Z,5.67
2022-08-05T23:12:46.224Z,5.90
2022-08-05T23:15:09.438Z,5.50
2022-08-05T23:17:37.179Z,5.10
2022-08-05T23:20:01.085Z,4.97
2022-08-05T23:22:27.498Z,4.87
2022-08-05T23:24:51.270Z,4.77
2022-08-05T23:27:12.966Z,4.47
2022-08-05T23:29:36.618Z,5.00
2022-08-05T23:31:57.894Z,4.50
2022-08-05T23:34:24.452Z,5.23
2022-08-05T23:36:46.359Z,4.63
2022-08-05T23:39:09.296Z,6.20
2022-08-05T23:41:34.291Z,5.03
2022-08-05T23:44:05.564Z,4.80
2022-08-05T23:46:28.142Z,3.80
2022-08-05T23:48:59.277Z,4.63
2022-08-05T23:51:22.680Z,4.57
2022-08-05T23:53:46.600Z,4.73
2022-08-05T23:56:09.947Z,4.03
2022-08-05T23:58:32.667Z,4.13
